Time;durP1;ratioP1;P1;durP2;ratioP2;P2;SDS_P1;SDS_P2;PMS_P1;PMS_P2;Temp;Humidity;BMP_temperature;BMP_pressure;BME280_temperature;BME280_humidity;BME280_pressure;Samples;Min_cycle;Max_cycle;Signal;HPM_P1;HPM_P2
2023/12/31 00:02:11;0.00;0.00;0.62;0.00;0.00;0.62;3.70;2.10;;;21.80;26.70;;;;;;2255557;61;20945;-60
2023/12/31 00:04:56;0.00;0.00;0.62;0.00;0.00;0.62;3.40;2.13;;;21.80;26.70;;;;;;2255809;61;20417;-61
2023/12/31 00:07:40;0.00;0.00;0.62;0.00;0.00;0.62;3.07;1.67;;;21.90;26.80;;;;;;2256069;61;20452;-62
2023/12/31 00:10:26;0.00;0.00;0.62;0.00;0.00;0.62;3.33;1.97;;;21.80;26.70;;;;;;2256128;61;20389;-61
2023/12/31 00:13:11;0.00;0.00;0.62;0.00;0.00;0.62;2.37;1.77;;;21.80;26.70;;;;;;2256460;61;20373;-59
2023/12/31 00:15:55;0.00;0.00;0.62;0.00;0.00;0.62;2.87;2.03;;;21.80;26.70;;;;;;2257021;61;20844;-57
2023/12/31 00:18:40;0.00;0.00;0.62;0.00;0.00;0.62;3.53;2.07;;;21.80;26.70;;;;;;2256285;61;20443;-56
2023/12/31 00:21:24;0.00;0.00;0.62;0.00;0.00;0.62;2.67;1.60;;;21.80;26.70;;;;;;2256782;61;20511;-58
2023/12/31 00:24:10;0.00;0.00;0.62;0.00;0.00;0.62;3.37;1.83;;;21.80;26.70;;;;;;2256748;61;20446;-61
2023/12/31 00:26:56;0.00;0.00;0.62;0.00;0.00;0.62;3.67;2.30;;;21.80;27.20;;;;;;2256393;61;20386;-66
2023/12/31 00:29:40;0.00;0.00;0.62;0.00;0.00;0.62;2.73;2.03;;;21.80;26.80;;;;;;2256588;61;20431;-54
2023/12/31 00:32:25;0.00;0.00;0.62;0.00;0.00;0.62;2.63;2.03;;;21.80;26.70;;;;;;2256401;61;20365;-57
2023/12/31 00:35:09;0.00;0.00;0.62;0.00;0.00;0.62;2.90;1.67;;;21.80;26.70;;;;;;2256838;61;20362;-60
2023/12/31 00:37:54;0.00;0.00;0.62;0.00;0.00;0.62;5.13;1.70;;;21.80;26.70;;;;;;2256791;61;20779;-61
2023/12/31 00:40:38;0.00;0.00;0.62;0.00;0.00;0.62;2.40;1.70;;;21.80;26.80;;;;;;2255753;61;20413;-59
2023/12/31 00:43:24;0.00;0.00;0.62;0.00;0.00;0.62;2.50;1.70;;;21.80;26.80;;;;;;2256299;61;20389;-57
2023/12/31 00:46:12;0.00;0.00;0.62;0.00;0.00;0.62;2.67;1.80;;;21.80;26.80;;;;;;2256567;61;20370;-60
2023/12/31 00:48:57;0.00;0.00;0.62;0.00;0.00;0.62;2.10;1.50;;;21.80;26.80;;;;;;2256369;61;20489;-59
2023/12/31 00:51:43;0.00;0.00;0.62;0.00;0.00;0.62;2.50;1.73;;;21.80;26.80;;;;;;2255989;61;20365;-59
2023/12/31 00:54:27;0.00;0.00;0.62;0.00;0.00;0.62;2.90;2.10;;;21.80;26.80;;;;;;2256731;61;20830;-60
2023/12/31 00:57:12;0.00;0.00;0.62;0.00;0.00;0.62;2.50;1.80;;;21.80;26.80;;;;;;2256384;61;20389;-60
2023/12/31 00:59:58;0.00;0.00;0.62;0.00;0.00;0.62;3.77;2.30;;;21.80;26.80;;;;;;2256762;61;20855;-55
2023/12/31 01:02:42;0.00;0.00;0.62;0.00;0.00;0.62;3.00;1.73;;;21.80;26.80;;;;;;2255454;61;20401;-60
2023/12/31 01:05:27;0.00;0.00;0.62;0.00;0.00;0.62;2.93;1.73;;;21.80;26.80;;;;;;2256342;61;20423;-59
2023/12/31 01:08:12;0.00;0.00;0.62;0.00;0.00;0.62;2.60;1.63;;;21.80;26.80;;;;;;2256043;61;20397;-60
2023/12/31 01:10:56;0.00;0.00;0.62;0.00;0.00;0.62;2.77;1.37;;;21.80;26.80;;;;;;2256277;61;20393;-60
2023/12/31 01:13:41;0.00;0.00;0.62;0.00;0.00;0.62;2.67;1.60;;;21.80;26.80;;;;;;2255701;61;20397;-60
2023/12/31 01:16:27;0.00;0.00;0.62;0.00;0.00;0.62;3.40;1.93;;;21.80;26.80;;;;;;2256211;61;20443;-57
2023/12/31 01:19:11;0.00;0.00;0.62;0.00;0.00;0.62;2.50;1.80;;;21.80;26.80;;;;;;2256289;61;20369;-60
2023/12/31 01:21:56;0.00;0.00;0.62;0.00;0.00;0.62;2.63;1.50;;;21.80;26.80;;;;;;2256092;61;20370;-57
2023/12/31 01:24:41;0.00;0.00;0.62;0.00;0.00;0.62;3.10;1.53;;;21.80;26.70;;;;;;2256261;61;20357;-59
2023/12/31 01:27:25;0.00;0.00;0.62;0.00;0.00;0.62;2.17;1.30;;;21.80;26.70;;;;;;2256509;61;20866;-56
2023/12/31 01:30:12;0.00;0.00;0.62;0.00;0.00;0.62;2.20;1.30;;;21.80;26.70;;;;;;2255899;61;20485;-59
2023/12/31 01:32:57;0.00;0.00;0.62;0.00;0.00;0.62;3.10;1.70;;;21.80;26.70;;;;;;2255835;61;20374;-60
2023/12/31 01:35:42;0.00;0.00;0.62;0.00;0.00;0.62;3.10;1.57;;;21.80;27.20;;;;;;2256417;61;20385;-60
2023/12/31 01:38:27;0.00;0.00;0.62;0.00;0.00;0.62;2.20;1.20;;;21.80;26.70;;;;;;2256079;61;20365;-58
2023/12/31 01:41:13;0.00;0.00;0.62;0.00;0.00;0.62;2.50;1.40;;;21.80;26.70;;;;;;2252919;61;20493;-58
2023/12/31 01:44:02;0.00;0.00;0.62;0.00;0.00;0.62;3.00;1.53;;;21.80;26.70;;;;;;2255927;61;20417;-59
2023/12/31 01:46:47;0.00;0.00;0.62;0.00;0.00;0.62;3.37;1.53;;;21.70;26.60;;;;;;2256150;61;20425;-62
2023/12/31 01:49:34;0.00;0.00;0.62;0.00;0.00;0.62;2.53;1.43;;;21.80;26.70;;;;;;2256180;61;20454;-60
2023/12/31 01:52:18;0.00;0.00;0.62;0.00;0.00;0.62;2.50;1.60;;;21.80;26.70;;;;;;2256122;61;20392;-60
2023/12/31 01:55:06;0.00;0.00;0.62;0.00;0.00;0.62;2.33;1.43;;;21.70;26.60;;;;;;2256048;61;20369;-58
2023/12/31 01:57:50;0.00;0.00;0.62;0.00;0.00;0.62;2.90;1.47;;;21.70;26.60;;;;;;2256068;61;20835;-59
2023/12/31 02:00:35;0.00;0.00;0.62;0.00;0.00;0.62;1.90;1.30;;;21.70;26.60;;;;;;2256013;61;20473;-61
2023/12/31 02:03:20;0.00;0.00;0.62;0.00;0.00;0.62;1.90;1.30;;;21.70;26.60;;;;;;2255602;61;20443;-59
2023/12/31 02:06:06;0.00;0.00;0.62;0.00;0.00;0.62;2.73;1.80;;;21.70;26.60;;;;;;2253420;61;20409;-59
2023/12/31 02:08:51;0.00;0.00;0.62;0.00;0.00;0.62;2.03;1.40;;;21.80;26.70;;;;;;2256131;61;20439;-61
2023/12/31 02:11:37;0.00;0.00;0.62;0.00;0.00;0.62;2.40;1.30;;;21.70;26.60;;;;;;2255610;61;20412;-62
2023/12/31 02:14:22;0.00;0.00;0.62;0.00;0.00;0.62;2.90;1.30;;;21.70;26.60;;;;;;2255929;61;20366;-59
2023/12/31 02:17:07;0.00;0.00;0.62;0.00;0.00;0.62;3.43;1.60;;;21.70;26.60;;;;;;2256129;61;20365;-58
2023/12/31 02:19:52;0.00;0.00;0.62;0.00;0.00;0.62;2.00;1.30;;;21.70;26.60;;;;;;2255935;61;20385;-59
2023/12/31 02:22:38;0.00;0.00;0.62;0.00;0.00;0.62;3.23;1.20;;;21.70;26.60;;;;;;2255739;61;20404;-59
2023/12/31 02:25:26;0.00;0.00;0.62;0.00;0.00;0.62;1.67;0.97;;;21.70;26.60;;;;;;2255897;61;20472;-58
2023/12/31 02:28:15;0.00;0.00;0.62;0.00;0.00;0.62;2.13;1.13;;;21.70;26.60;;;;;;2256336;61;20791;-61
2023/12/31 02:30:59;0.00;0.00;0.62;0.00;0.00;0.62;2.23;1.20;;;21.70;26.60;;;;;;2255816;61;20393;-61
2023/12/31 02:33:44;0.00;0.00;0.62;0.00;0.00;0.62;1.70;1.10;;;21.70;26.60;;;;;;2574484;45;20446;-57
2023/12/31 02:36:28;0.00;0.00;0.62;0.00;0.00;0.62;1.60;0.97;;;21.70;26.60;;;;;;2254429;61;20794;-55
2023/12/31 02:39:13;0.00;0.00;0.62;0.00;0.00;0.62;2.10;1.20;;;21.70;26.60;;;;;;2248618;61;20417;-59
2023/12/31 02:41:58;0.00;0.00;0.62;0.00;0.00;0.62;2.40;1.50;;;21.70;26.60;;;;;;2251756;61;20418;-60
2023/12/31 02:44:44;0.00;0.00;0.62;0.00;0.00;0.62;2.80;1.60;;;21.70;26.60;;;;;;2251957;61;20366;-60
2023/12/31 02:47:28;0.00;0.00;0.62;0.00;0.00;0.62;2.80;2.00;;;21.70;26.60;;;;;;2251818;61;20829;-59
2023/12/31 02:50:13;0.00;0.00;0.62;0.00;0.00;0.62;3.40;2.30;;;21.70;26.60;;;;;;2252477;61;20385;-59
2023/12/31 02:52:58;0.00;0.00;0.62;0.00;0.00;0.62;4.20;2.40;;;21.70;26.60;;;;;;2255938;61;20496;-60
2023/12/31 02:55:42;0.00;0.00;0.62;0.00;0.00;0.62;4.10;2.87;;;21.70;26.60;;;;;;2256109;61;20365;-60
2023/12/31 02:58:28;0.00;0.00;0.62;0.00;0.00;0.62;5.60;4.10;;;21.70;26.60;;;;;;2255854;61;20843;-61
2023/12/31 03:01:14;0.00;0.00;0.62;0.00;0.00;0.62;4.93;3.40;;;21.70;26.70;;;;;;2255421;61;20424;-60
2023/12/31 03:03:59;0.00;0.00;0.62;0.00;0.00;0.62;6.87;4.20;;;21.70;26.70;;;;;;2255624;61;20929;-59
2023/12/31 03:06:43;0.00;0.00;0.62;0.00;0.00;0.62;4.83;3.97;;;21.70;26.70;;;;;;2256077;61;20389;-64
2023/12/31 03:09:28;0.00;0.00;0.62;0.00;0.00;0.62;6.27;3.97;;;21.70;26.70;;;;;;2255664;61;20380;-57
2023/12/31 03:12:12;0.00;0.00;0.62;0.00;0.00;0.62;6.53;4.83;;;21.70;26.70;;;;;;2255968;61;20362;-59
2023/12/31 03:14:57;0.00;0.00;0.62;0.00;0.00;0.62;4.40;3.47;;;21.70;26.70;;;;;;2255949;61;20453;-61
2023/12/31 03:17:43;0.00;0.00;0.62;0.00;0.00;0.62;7.30;5.27;;;21.70;26.70;;;;;;2255532;61;20457;-63
2023/12/31 03:20:28;0.00;0.00;0.62;0.00;0.00;0.62;7.00;5.50;;;21.70;26.70;;;;;;2255703;61;20390;-61
2023/12/31 03:23:15;0.00;0.00;0.62;0.00;0.00;0.62;6.63;4.70;;;21.70;26.70;;;;;;2255185;61;20439;-57
2023/12/31 03:25:59;0.00;0.00;0.62;0.00;0.00;0.62;8.20;5.50;;;21.70;26.70;;;;;;2253057;61;20463;-68
2023/12/31 03:28:44;0.00;0.00;0.62;0.00;0.00;0.62;6.80;5.00;;;21.70;26.70;;;;;;2256279;61;20413;-58
2023/12/31 03:31:28;0.00;0.00;0.62;0.00;0.00;0.62;8.00;5.77;;;21.70;26.70;;;;;;2255664;61;20385;-58
2023/12/31 03:34:14;0.00;0.00;0.62;0.00;0.00;0.62;8.13;6.47;;;21.70;26.70;;;;;;2256423;61;20398;-58
2023/12/31 03:36:59;0.00;0.00;0.62;0.00;0.00;0.62;8.03;6.33;;;21.70;26.70;;;;;;2256333;61;20397;-61
2023/12/31 03:39:43;0.00;0.00;0.62;0.00;0.00;0.62;7.97;6.80;;;21.70;26.70;;;;;;2255298;61;20416;-59
2023/12/31 03:42:28;0.00;0.00;0.62;0.00;0.00;0.62;8.00;5.60;;;21.70;26.70;;;;;;2255207;61;20909;-57
2023/12/31 03:45:12;0.00;0.00;0.62;0.00;0.00;0.62;8.87;6.40;;;21.70;26.70;;;;;;2256062;61;20765;-59
2023/12/31 03:47:58;0.00;0.00;0.62;0.00;0.00;0.62;9.13;7.10;;;21.70;26.70;;;;;;2256457;61;20813;-60
2023/12/31 03:50:44;0.00;0.00;0.62;0.00;0.00;0.62;9.80;7.20;;;21.70;26.70;;;;;;2257149;61;20390;-57
2023/12/31 03:53:29;0.00;0.00;0.62;0.00;0.00;0.62;9.57;6.97;;;21.70;26.70;;;;;;2255608;61;20420;-57
2023/12/31 03:56:13;0.00;0.00;0.62;0.00;0.00;0.62;9.00;6.63;;;21.70;26.70;;;;;;2256821;61;20886;-58
2023/12/31 03:58:58;0.00;0.00;0.62;0.00;0.00;0.62;10.87;7.53;;;21.70;26.70;;;;;;2256893;61;20358;-56
2023/12/31 04:01:44;0.00;0.00;0.62;0.00;0.00;0.62;7.23;5.93;;;21.70;26.70;;;;;;2256022;61;20370;-59
2023/12/31 04:04:30;0.00;0.00;0.62;0.00;0.00;0.62;8.80;7.10;;;21.70;26.70;;;;;;2256817;61;20374;-59
2023/12/31 04:07:16;0.00;0.00;0.62;0.00;0.00;0.62;9.10;6.90;;;21.60;26.70;;;;;;2256132;61;20790;-59
2023/12/31 04:10:01;0.00;0.00;0.62;0.00;0.00;0.62;7.83;5.77;;;21.70;26.70;;;;;;2256922;61;20386;-59
2023/12/31 04:12:46;0.00;0.00;0.62;0.00;0.00;0.62;8.40;6.13;;;21.60;26.70;;;;;;2256675;61;20370;-53
2023/12/31 04:15:30;0.00;0.00;0.62;0.00;0.00;0.62;8.97;7.17;;;21.70;26.80;;;;;;2256472;61;20779;-57
2023/12/31 04:18:15;0.00;0.00;0.62;0.00;0.00;0.62;9.03;6.50;;;21.70;26.80;;;;;;2257189;61;20358;-58
2023/12/31 04:21:00;0.00;0.00;0.62;0.00;0.00;0.62;9.10;6.47;;;21.70;26.70;;;;;;2256896;61;20470;-57
2023/12/31 04:23:46;0.00;0.00;0.62;0.00;0.00;0.62;10.07;7.10;;;21.60;26.70;;;;;;2256357;61;20366;-55
2023/12/31 04:26:31;0.00;0.00;0.62;0.00;0.00;0.62;9.20;6.67;;;21.70;26.70;;;;;;2256420;61;20369;-56
2023/12/31 04:29:16;0.00;0.00;0.62;0.00;0.00;0.62;9.13;6.87;;;21.60;26.70;;;;;;2256790;61;20934;-59
2023/12/31 04:32:00;0.00;0.00;0.62;0.00;0.00;0.62;7.90;6.30;;;21.60;26.70;;;;;;2256429;61;20408;-57
2023/12/31 04:34:45;0.00;0.00;0.62;0.00;0.00;0.62;8.63;6.77;;;21.70;26.70;;;;;;2254475;61;20467;-56
2023/12/31 04:37:30;0.00;0.00;0.62;0.00;0.00;0.62;9.30;6.70;;;21.60;26.70;;;;;;2256447;61;20401;-57
2023/12/31 04:40:16;0.00;0.00;0.62;0.00;0.00;0.62;8.27;6.50;;;21.60;26.70;;;;;;2256117;61;20431;-57
2023/12/31 04:43:01;0.00;0.00;0.62;0.00;0.00;0.62;7.67;5.97;;;21.70;26.80;;;;;;2256350;61;20878;-57
2023/12/31 04:45:45;0.00;0.00;0.62;0.00;0.00;0.62;7.93;6.10;;;21.70;26.80;;;;;;2256471;61;20374;-56
2023/12/31 04:48:30;0.00;0.00;0.62;0.00;0.00;0.62;7.73;6.00;;;21.60;26.70;;;;;;2256822;61;21065;-57
2023/12/31 04:51:25;0.00;0.00;0.62;0.00;0.00;0.62;9.50;6.40;;;21.70;26.80;;;;;;2256758;61;20409;-58
2023/12/31 04:54:10;0.00;0.00;0.62;0.00;0.00;0.62;7.93;6.03;;;21.70;26.80;;;;;;2256989;61;20374;-56
2023/12/31 04:56:55;0.00;0.00;0.62;0.00;0.00;0.62;8.20;5.40;;;21.60;26.70;;;;;;2256629;61;20397;-59
2023/12/31 04:59:40;0.00;0.00;0.62;0.00;0.00;0.62;7.67;6.00;;;21.70;26.80;;;;;;2256355;61;20397;-54
2023/12/31 05:02:27;0.00;0.00;0.62;0.00;0.00;0.62;7.37;6.33;;;21.70;26.80;;;;;;2256065;61;20397;-59
2023/12/31 05:05:12;0.00;0.00;0.62;0.00;0.00;0.62;8.77;6.47;;;21.70;26.70;;;;;;2256521;61;20894;-57
2023/12/31 05:07:57;0.00;0.00;0.62;0.00;0.00;0.62;7.63;6.10;;;21.70;26.80;;;;;;2256383;61;20449;-57
2023/12/31 05:10:42;0.00;0.00;0.62;0.00;0.00;0.62;8.57;6.20;;;21.60;26.70;;;;;;2256726;61;20914;-59
2023/12/31 05:13:27;0.00;0.00;0.62;0.00;0.00;0.62;8.10;5.73;;;21.60;26.70;;;;;;2256636;61;20432;-54
2023/12/31 05:16:14;0.00;0.00;0.62;0.00;0.00;0.62;6.77;5.27;;;21.60;26.70;;;;;;2256446;61;20420;-57
2023/12/31 05:19:00;0.00;0.00;0.62;0.00;0.00;0.62;8.50;6.10;;;21.60;26.70;;;;;;2256811;61;20401;-56
2023/12/31 05:21:45;0.00;0.00;0.62;0.00;0.00;0.62;6.63;5.60;;;21.60;26.70;;;;;;2255993;61;20765;-55
2023/12/31 05:24:30;0.00;0.00;0.62;0.00;0.00;0.62;6.90;4.97;;;21.60;26.70;;;;;;2256754;61;20893;-57
2023/12/31 05:27:14;0.00;0.00;0.62;0.00;0.00;0.62;6.93;5.43;;;21.60;26.70;;;;;;2256894;61;20400;-58
2023/12/31 05:30:00;0.00;0.00;0.62;0.00;0.00;0.62;6.97;5.03;;;21.60;26.70;;;;;;2256438;61;20460;-58
2023/12/31 05:32:45;0.00;0.00;0.62;0.00;0.00;0.62;7.40;5.37;;;21.60;26.70;;;;;;2256339;61;20373;-59
2023/12/31 05:35:29;0.00;0.00;0.62;0.00;0.00;0.62;6.90;5.03;;;21.60;26.70;;;;;;2256792;61;20408;-59
2023/12/31 05:38:14;0.00;0.00;0.62;0.00;0.00;0.62;7.43;5.10;;;21.60;26.70;;;;;;2256095;61;20362;-56
2023/12/31 05:40:59;0.00;0.00;0.62;0.00;0.00;0.62;6.47;4.97;;;21.60;26.70;;;;;;2256614;61;20429;-56
2023/12/31 05:43:44;0.00;0.00;0.62;0.00;0.00;0.62;7.37;5.30;;;21.60;26.70;;;;;;2256103;61;20366;-56
2023/12/31 05:46:30;0.00;0.00;0.62;0.00;0.00;0.62;6.13;4.53;;;21.60;26.70;;;;;;2256901;61;20412;-55
2023/12/31 05:49:14;0.00;0.00;0.62;0.00;0.00;0.62;7.63;5.50;;;21.60;26.70;;;;;;2256777;61;20394;-56
2023/12/31 05:51:59;0.00;0.00;0.62;0.00;0.00;0.62;7.43;5.10;;;21.60;26.70;;;;;;2256109;61;20949;-54
2023/12/31 05:54:43;0.00;0.00;0.62;0.00;0.00;0.62;6.43;5.00;;;21.60;26.70;;;;;;2256486;61;20364;-56
2023/12/31 05:57:28;0.00;0.00;0.62;0.00;0.00;0.62;7.60;4.97;;;21.60;26.70;;;;;;2256588;61;20362;-57
2023/12/31 06:00:13;0.00;0.00;0.62;0.00;0.00;0.62;6.40;4.67;;;21.60;26.70;;;;;;2256226;61;21134;-54
2023/12/31 06:03:00;0.00;0.00;0.62;0.00;0.00;0.62;5.53;4.60;;;21.60;26.70;;;;;;2256237;61;20362;-59
2023/12/31 06:05:44;0.00;0.00;0.62;0.00;0.00;0.62;5.63;3.63;;;21.60;26.70;;;;;;2256091;61;20362;-59
2023/12/31 06:08:29;0.00;0.00;0.62;0.00;0.00;0.62;6.43;3.97;;;21.60;26.70;;;;;;2256587;61;20771;-56
2023/12/31 06:11:13;0.00;0.00;0.62;0.00;0.00;0.62;5.83;4.50;;;21.60;26.70;;;;;;2256626;61;20880;-57
2023/12/31 06:13:58;0.00;0.00;0.62;0.00;0.00;0.62;4.87;3.70;;;21.60;26.70;;;;;;2255961;61;20370;-56
2023/12/31 06:16:43;0.00;0.00;0.62;0.00;0.00;0.62;5.30;3.90;;;21.60;26.70;;;;;;2256507;61;20374;-53
2023/12/31 06:19:28;0.00;0.00;0.62;0.00;0.00;0.62;5.40;3.60;;;21.60;26.70;;;;;;2256699;61;21066;-55
2023/12/31 06:22:13;0.00;0.00;0.62;0.00;0.00;0.62;5.90;4.20;;;21.60;26.70;;;;;;2255872;61;20405;-55
2023/12/31 06:24:58;0.00;0.00;0.62;0.00;0.00;0.62;5.37;3.70;;;21.60;26.60;;;;;;2256623;61;20428;-58
2023/12/31 06:27:43;0.00;0.00;0.62;0.00;0.00;0.62;5.63;3.87;;;21.60;26.90;;;;;;2256527;61;20393;-56
2023/12/31 06:30:28;0.00;0.00;0.62;0.00;0.00;0.62;5.07;3.70;;;21.60;26.70;;;;;;2256493;61;20485;-59
2023/12/31 06:33:12;0.00;0.00;0.62;0.00;0.00;0.62;5.40;3.80;;;21.60;26.70;;;;;;2255768;61;20902;-58
2023/12/31 06:35:59;0.00;0.00;0.62;0.00;0.00;0.62;4.73;3.63;;;21.60;26.70;;;;;;2256220;61;20424;-55
2023/12/31 06:38:43;0.00;0.00;0.62;0.00;0.00;0.62;5.63;4.20;;;21.60;26.70;;;;;;2256685;61;20405;-57
2023/12/31 06:41:28;0.00;0.00;0.62;0.00;0.00;0.62;4.33;3.57;;;21.60;26.70;;;;;;2256304;61;20437;-58
2023/12/31 06:44:12;0.00;0.00;0.62;0.00;0.00;0.62;5.53;3.90;;;21.60;26.70;;;;;;2256008;61;20901;-58
2023/12/31 06:46:57;0.00;0.00;0.62;0.00;0.00;0.62;4.33;3.10;;;21.60;26.70;;;;;;2256536;61;20970;-54
2023/12/31 06:49:41;0.00;0.00;0.62;0.00;0.00;0.62;3.80;3.03;;;21.60;26.70;;;;;;2256311;61;20981;-55
2023/12/31 06:52:27;0.00;0.00;0.62;0.00;0.00;0.62;4.87;3.70;;;21.60;26.70;;;;;;2256264;61;20428;-58
2023/12/31 06:55:12;0.00;0.00;0.62;0.00;0.00;0.62;4.30;2.80;;;21.60;26.70;;;;;;2256471;61;20450;-54
2023/12/31 06:57:56;0.00;0.00;0.62;0.00;0.00;0.62;5.20;3.70;;;21.60;26.70;;;;;;2256111;61;20385;-52
2023/12/31 07:00:41;0.00;0.00;0.62;0.00;0.00;0.62;4.20;3.20;;;21.60;26.70;;;;;;2255856;61;20417;-58
2023/12/31 07:03:26;0.00;0.00;0.62;0.00;0.00;0.62;3.90;2.53;;;21.60;26.70;;;;;;2256124;61;20370;-57
2023/12/31 07:06:10;0.00;0.00;0.62;0.00;0.00;0.62;4.70;3.43;;;21.60;26.70;;;;;;2256061;61;20420;-59
2023/12/31 07:08:56;0.00;0.00;0.62;0.00;0.00;0.62;4.83;3.37;;;21.60;26.70;;;;;;2256433;61;20500;-57
2023/12/31 07:11:41;0.00;0.00;0.62;0.00;0.00;0.62;4.60;3.30;;;21.60;26.70;;;;;;2255968;61;20366;-55
2023/12/31 07:14:26;0.00;0.00;0.62;0.00;0.00;0.62;3.63;2.87;;;21.60;26.70;;;;;;2256301;61;20405;-56
2023/12/31 07:17:11;0.00;0.00;0.62;0.00;0.00;0.62;3.10;2.20;;;21.60;26.70;;;;;;2256445;61;20913;-55
2023/12/31 07:19:56;0.00;0.00;0.62;0.00;0.00;0.62;4.00;2.80;;;21.60;26.70;;;;;;2256176;61;20431;-57
2023/12/31 07:22:43;0.00;0.00;0.62;0.00;0.00;0.62;3.87;2.77;;;21.60;26.60;;;;;;2256829;61;20929;-56
2023/12/31 07:25:30;0.00;0.00;0.62;0.00;0.00;0.62;3.30;2.70;;;21.60;26.70;;;;;;2257068;61;20403;-54
2023/12/31 07:28:15;0.00;0.00;0.62;0.00;0.00;0.62;3.30;2.40;;;21.60;26.70;;;;;;2256684;61;20806;-58
2023/12/31 07:31:00;0.00;0.00;0.62;0.00;0.00;0.62;3.93;2.43;;;21.60;26.60;;;;;;2257221;61;20851;-56
2023/12/31 07:33:44;0.00;0.00;0.62;0.00;0.00;0.62;3.40;2.23;;;21.50;26.60;;;;;;2256705;61;20408;-57
2023/12/31 07:36:29;0.00;0.00;0.62;0.00;0.00;0.62;3.23;2.30;;;21.60;26.70;;;;;;2256847;61;20393;-58
2023/12/31 07:39:14;0.00;0.00;0.62;0.00;0.00;0.62;4.60;2.87;;;21.50;26.60;;;;;;2257158;61;20945;-54
2023/12/31 07:41:59;0.00;0.00;0.62;0.00;0.00;0.62;3.43;2.80;;;21.50;26.60;;;;;;2256204;61;20427;-59
2023/12/31 07:44:44;0.00;0.00;0.62;0.00;0.00;0.62;3.13;2.03;;;21.60;26.60;;;;;;2256644;61;20366;-55
2023/12/31 07:47:28;0.00;0.00;0.62;0.00;0.00;0.62;3.03;2.20;;;21.60;26.70;;;;;;2257047;61;20405;-60
2023/12/31 07:50:13;0.00;0.00;0.62;0.00;0.00;0.62;3.10;2.17;;;21.60;26.70;;;;;;2256862;61;20960;-59
2023/12/31 07:52:57;0.00;0.00;0.62;0.00;0.00;0.62;3.00;2.30;;;21.50;26.60;;;;;;2256667;61;20365;-57
2023/12/31 07:55:43;0.00;0.00;0.62;0.00;0.00;0.62;2.83;2.20;;;21.50;26.60;;;;;;2256993;61;20409;-53
2023/12/31 07:58:29;0.00;0.00;0.62;0.00;0.00;0.62;3.70;2.10;;;21.60;26.70;;;;;;2256641;61;20357;-60
2023/12/31 08:01:13;0.00;0.00;0.62;0.00;0.00;0.62;3.17;2.50;;;21.60;26.70;;;;;;2257023;61;20435;-60
2023/12/31 08:03:58;0.00;0.00;0.62;0.00;0.00;0.62;3.17;2.10;;;21.60;26.70;;;;;;2256859;61;20400;-56
2023/12/31 08:06:42;0.00;0.00;0.62;0.00;0.00;0.62;2.97;2.40;;;21.50;26.60;;;;;;2257181;61;20400;-57
2023/12/31 08:09:27;0.00;0.00;0.62;0.00;0.00;0.62;2.87;2.17;;;21.50;26.60;;;;;;2256837;61;20384;-55
2023/12/31 08:12:11;0.00;0.00;0.62;0.00;0.00;0.62;4.20;2.23;;;21.50;26.60;;;;;;2256282;61;20365;-56
2023/12/31 08:14:57;0.00;0.00;0.62;0.00;0.00;0.62;2.77;1.97;;;21.50;26.60;;;;;;2257282;61;20417;-55
2023/12/31 08:17:44;0.00;0.00;0.62;0.00;0.00;0.62;2.50;1.70;;;21.60;26.70;;;;;;2256988;61;20389;-57
2023/12/31 08:20:29;0.00;0.00;0.62;0.00;0.00;0.62;2.73;2.17;;;21.50;26.70;;;;;;2256554;61;20417;-56
2023/12/31 08:23:13;0.00;0.00;0.62;0.00;0.00;0.62;2.40;1.70;;;21.50;26.70;;;;;;2256606;61;20451;-55
2023/12/31 08:25:58;0.00;0.00;0.62;0.00;0.00;0.62;3.00;2.00;;;21.50;26.70;;;;;;2256905;61;20417;-57
2023/12/31 08:28:43;0.00;0.00;0.62;0.00;0.00;0.62;2.80;2.10;;;21.50;26.70;;;;;;2256978;61;20389;-54
2023/12/31 08:31:28;0.00;0.00;0.62;0.00;0.00;0.62;3.07;2.10;;;21.50;26.70;;;;;;2256530;61;20389;-54
2023/12/31 08:34:13;0.00;0.00;0.62;0.00;0.00;0.62;2.50;1.77;;;21.50;26.70;;;;;;2256424;61;20389;-57
2023/12/31 08:36:58;0.00;0.00;0.62;0.00;0.00;0.62;2.57;1.90;;;21.50;26.70;;;;;;2256916;61;20450;-56
2023/12/31 08:39:42;0.00;0.00;0.62;0.00;0.00;0.62;2.47;1.60;;;21.50;26.70;;;;;;2256282;61;20382;-60
2023/12/31 08:42:27;0.00;0.00;0.62;0.00;0.00;0.62;2.37;1.67;;;21.50;26.70;;;;;;2256130;61;20463;-57
2023/12/31 08:45:12;0.00;0.00;0.62;0.00;0.00;0.62;2.80;1.80;;;21.50;26.70;;;;;;2256434;61;20358;-57
2023/12/31 08:47:58;0.00;0.00;0.62;0.00;0.00;0.62;2.97;2.20;;;21.50;27.20;;;;;;2256986;61;20482;-55
2023/12/31 08:50:42;0.00;0.00;0.62;0.00;0.00;0.62;3.17;2.03;;;21.50;26.70;;;;;;2256055;61;20386;-57
2023/12/31 08:53:27;0.00;0.00;0.62;0.00;0.00;0.62;3.23;2.33;;;21.50;27.20;;;;;;2256607;61;20453;-56
2023/12/31 08:56:12;0.00;0.00;0.62;0.00;0.00;0.62;3.30;2.10;;;21.50;26.70;;;;;;2256093;61;20394;-56
2023/12/31 08:58:57;0.00;0.00;0.62;0.00;0.00;0.62;3.50;2.20;;;21.50;26.70;;;;;;2256679;61;20469;-57
2023/12/31 09:01:41;0.00;0.00;0.62;0.00;0.00;0.62;3.17;2.40;;;21.50;26.70;;;;;;2253094;61;20389;-57
2023/12/31 09:04:33;0.00;0.00;0.62;0.00;0.00;0.62;3.33;2.53;;;21.50;27.20;;;;;;2256420;61;20596;-58
2023/12/31 09:07:18;0.00;0.00;0.62;0.00;0.00;0.62;3.97;2.70;;;21.50;26.70;;;;;;2256791;61;20494;-60
2023/12/31 09:10:04;0.00;0.00;0.62;0.00;0.00;0.62;4.77;3.17;;;21.50;26.70;;;;;;2256885;61;20474;-54
2023/12/31 09:12:48;0.00;0.00;0.62;0.00;0.00;0.62;3.00;2.30;;;21.50;26.70;;;;;;2256019;61;20369;-57
2023/12/31 09:15:33;0.00;0.00;0.62;0.00;0.00;0.62;3.77;3.10;;;21.50;26.70;;;;;;2256778;61;20366;-61
2023/12/31 09:18:17;0.00;0.00;0.62;0.00;0.00;0.62;3.67;2.80;;;21.50;26.70;;;;;;2256213;61;20767;-56
2023/12/31 09:21:03;0.00;0.00;0.62;0.00;0.00;0.62;4.03;2.90;;;21.50;26.70;;;;;;2256779;61;20385;-57
2023/12/31 09:23:47;0.00;0.00;0.62;0.00;0.00;0.62;4.17;3.03;;;21.50;26.70;;;;;;2256376;61;20803;-60
2023/12/31 09:26:32;0.00;0.00;0.62;0.00;0.00;0.62;4.97;3.53;;;21.50;26.70;;;;;;2256410;61;20766;-56
2023/12/31 09:29:17;0.00;0.00;0.62;0.00;0.00;0.62;3.53;3.00;;;21.50;26.70;;;;;;2256631;61;20975;-56
2023/12/31 09:32:03;0.00;0.00;0.62;0.00;0.00;0.62;4.30;3.20;;;21.50;26.70;;;;;;2256377;61;20661;-58
2023/12/31 09:34:48;0.00;0.00;0.62;0.00;0.00;0.62;4.37;3.43;;;21.50;26.70;;;;;;2256433;61;20350;-58
2023/12/31 09:37:34;0.00;0.00;0.62;0.00;0.00;0.62;5.87;4.10;;;21.50;26.70;;;;;;2256771;61;20381;-56
2023/12/31 09:40:19;0.00;0.00;0.62;0.00;0.00;0.62;5.37;4.13;;;21.50;26.70;;;;;;2256512;61;20388;-58
2023/12/31 09:43:05;0.00;0.00;0.62;0.00;0.00;0.62;5.77;4.17;;;21.50;26.70;;;;;;2256141;61;20401;-53
2023/12/31 09:45:51;0.00;0.00;0.62;0.00;0.00;0.62;4.70;3.67;;;21.50;26.60;;;;;;2256733;61;20366;-58
2023/12/31 09:48:36;0.00;0.00;0.62;0.00;0.00;0.62;4.57;3.87;;;21.50;26.60;;;;;;2256195;61;20406;-57
2023/12/31 09:51:21;0.00;0.00;0.62;0.00;0.00;0.62;5.40;3.73;;;21.50;26.60;;;;;;2256707;61;20914;-59
2023/12/31 09:54:08;0.00;0.00;0.62;0.00;0.00;0.62;5.27;3.90;;;21.50;26.60;;;;;;2256805;61;20370;-56
2023/12/31 09:56:56;0.00;0.00;0.62;0.00;0.00;0.62;4.97;3.90;;;21.50;26.70;;;;;;2256200;61;20373;-57
2023/12/31 09:59:44;0.00;0.00;0.62;0.00;0.00;0.62;5.57;4.00;;;21.50;26.60;;;;;;2256488;61;20914;-54
2023/12/31 10:02:29;0.00;0.00;0.62;0.00;0.00;0.62;5.33;3.60;;;21.50;26.60;;;;;;2255799;61;20773;-58
2023/12/31 10:05:16;0.00;0.00;0.62;0.00;0.00;0.62;6.00;3.90;;;21.50;26.60;;;;;;2256700;61;20397;-58
2023/12/31 10:08:03;0.00;0.00;0.62;0.00;0.00;0.62;5.70;3.67;;;21.50;26.60;;;;;;2256443;61;20386;-59
2023/12/31 10:10:53;0.00;0.00;0.62;0.00;0.00;0.62;4.90;3.53;;;21.50;26.60;;;;;;2256186;61;20389;-56
2023/12/31 10:13:38;0.00;0.00;0.62;0.00;0.00;0.62;5.30;4.10;;;21.50;26.50;;;;;;2256166;61;20362;-58
2023/12/31 10:16:22;0.00;0.00;0.62;0.00;0.00;0.62;4.40;3.33;;;21.50;26.60;;;;;;2256665;61;20361;-55
2023/12/31 10:19:07;0.00;0.00;0.62;0.00;0.00;0.62;4.50;3.33;;;21.50;26.50;;;;;;2255765;61;20365;-58
2023/12/31 10:21:52;0.00;0.00;0.62;0.00;0.00;0.62;5.20;3.87;;;21.50;26.50;;;;;;2256258;61;20367;-57
2023/12/31 10:24:37;0.00;0.00;0.62;0.00;0.00;0.62;4.60;3.67;;;21.50;26.50;;;;;;2256381;61;20835;-60
2023/12/31 10:27:23;0.00;0.00;0.62;0.00;0.00;0.62;6.87;4.70;;;21.50;26.60;;;;;;2256591;61;20791;-57
2023/12/31 10:30:10;0.00;0.00;0.62;0.00;0.00;0.62;5.00;3.37;;;21.50;26.50;;;;;;2256618;61;20385;-56
2023/12/31 10:33:08;0.00;0.00;0.62;0.00;0.00;0.62;4.30;3.57;;;21.50;26.50;;;;;;2255636;61;20401;-59
2023/12/31 10:36:02;0.00;0.00;0.62;0.00;0.00;0.62;5.20;4.00;;;21.50;26.50;;;;;;2256470;61;21152;-56
2023/12/31 10:38:48;0.00;0.00;0.62;0.00;0.00;0.62;4.50;3.90;;;21.50;27.00;;;;;;2256431;61;20366;-58
2023/12/31 10:41:35;0.00;0.00;0.62;0.00;0.00;0.62;6.07;4.10;;;21.50;26.50;;;;;;2255796;61;20389;-56
2023/12/31 10:44:23;0.00;0.00;0.62;0.00;0.00;0.62;3.93;3.40;;;21.50;26.50;;;;;;2256628;61;20775;-53
2023/12/31 10:47:15;0.00;0.00;0.62;0.00;0.00;0.62;4.60;3.67;;;21.50;26.50;;;;;;2256020;61;20420;-53
2023/12/31 10:50:00;0.00;0.00;0.62;0.00;0.00;0.62;5.40;3.80;;;21.50;26.50;;;;;;2256540;61;20941;-58
2023/12/31 10:52:47;0.00;0.00;0.62;0.00;0.00;0.62;4.73;3.70;;;21.50;26.50;;;;;;2256009;61;20362;-56